Time;durP1;ratioP1;P1;durP2;ratioP2;P2;SDS_P1;SDS_P2;PMS_P1;PMS_P2;Temp;Humidity;BMP_temperature;BMP_pressure;BME280_temperature;BME280_humidity;BME280_pressure;Samples;Min_cycle;Max_cycle;Signal;HPM_P1;HPM_P2
2022/12/03 00:01:41;;;;;;;9.95;5.63;;;;;;;6.32;100.00;101411.88;5052517;28;20055;-70
2022/12/03 00:04:06;;;;;;;13.80;12.32;;;;;;;6.45;100.00;101434.13;5050183;28;20025;-69
2022/12/03 00:06:32;;;;;;;17.27;15.57;;;;;;;6.55;100.00;101458.75;5049435;28;20037;-71
2022/12/03 00:08:57;;;;;;;19.23;13.52;;;;;;;6.39;100.00;101434.59;5044822;28;20029;-69
2022/12/03 00:11:23;;;;;;;11.73;9.82;;;;;;;6.49;100.00;101459.19;5030518;28;20026;-70
2022/12/03 00:13:48;;;;;;;10.32;8.43;;;;;;;6.48;100.00;101460.00;5030558;28;20032;-69
2022/12/03 00:16:13;;;;;;;9.35;7.10;;;;;;;6.48;100.00;101462.56;5030711;28;20426;-72
2022/12/03 00:18:39;;;;;;;10.73;5.25;;;;;;;6.47;100.00;101460.78;5044271;28;20021;-74
2022/12/03 00:21:04;;;;;;;6.55;4.30;;;;;;;6.41;100.00;101462.91;5030125;28;20030;-70
2022/12/03 00:23:30;;;;;;;6.00;3.72;;;;;;;6.40;100.00;101450.88;5035505;28;20029;-72
2022/12/03 00:25:56;;;;;;;5.68;3.72;;;;;;;6.47;100.00;101471.03;5050101;28;20032;-71
2022/12/03 00:28:21;;;;;;;6.45;3.30;;;;;;;6.45;100.00;101476.03;5050226;28;20071;-73
2022/12/03 00:30:47;;;;;;;8.15;3.50;;;;;;;6.45;100.00;101472.59;5049845;28;20060;-70
2022/12/03 00:33:12;;;;;;;5.80;2.90;;;;;;;6.30;100.00;101472.41;5042853;28;20037;-68
2022/12/03 00:35:37;;;;;;;7.97;4.95;;;;;;;6.16;100.00;101471.44;5030303;28;20112;-77
2022/12/03 00:38:03;;;;;;;9.38;4.95;;;;;;;6.09;100.00;101467.56;5029958;28;20068;-69
2022/12/03 00:40:28;;;;;;;7.28;3.30;;;;;;;6.01;100.00;101478.03;5030285;28;20029;-71
2022/12/03 00:42:54;;;;;;;10.00;3.35;;;;;;;6.02;100.00;101479.81;5041079;28;20037;-71
2022/12/03 00:45:19;;;;;;;5.85;3.30;;;;;;;6.02;100.00;101488.41;5029865;28;20025;-70
2022/12/03 00:47:45;;;;;;;7.05;3.20;;;;;;;5.92;100.00;101466.31;5029780;28;20091;-71
2022/12/03 00:50:10;;;;;;;4.13;2.65;;;;;;;6.04;100.00;101480.81;5030114;28;20475;-74
2022/12/03 00:52:36;;;;;;;5.55;2.63;;;;;;;6.00;100.00;101472.03;5029551;28;20053;-71
2022/12/03 00:55:02;;;;;;;5.97;3.00;;;;;;;5.77;100.00;101447.25;5030139;28;20018;-72
2022/12/03 00:57:27;;;;;;;5.47;2.90;;;;;;;5.86;100.00;101464.97;5029870;28;20036;-75
2022/12/03 00:59:53;;;;;;;5.57;2.85;;;;;;;5.87;100.00;101477.00;5029738;28;20050;-73
2022/12/03 01:02:18;;;;;;;9.48;3.08;;;;;;;5.95;100.00;101486.16;5040577;28;20109;-74
2022/12/03 01:04:43;;;;;;;6.68;2.83;;;;;;;5.92;100.00;101496.16;5033400;28;20021;-75
2022/12/03 01:07:09;;;;;;;4.18;2.17;;;;;;;5.81;100.00;101480.03;5029789;28;20079;-74
2022/12/03 01:09:34;;;;;;;3.80;2.10;;;;;;;5.92;100.00;101491.03;5029871;28;20033;-73
2022/12/03 01:12:00;;;;;;;3.58;2.47;;;;;;;5.69;100.00;101448.41;5029993;28;20395;-74
2022/12/03 01:14:25;;;;;;;5.00;2.40;;;;;;;5.92;100.00;101485.91;5029758;28;20083;-76
2022/12/03 01:16:51;;;;;;;3.90;2.35;;;;;;;5.92;100.00;101486.81;5029765;28;20021;-70
2022/12/03 01:19:18;;;;;;;3.63;2.30;;;;;;;5.90;100.00;101487.50;5029572;28;20109;-69
2022/12/03 01:21:45;;;;;;;6.93;2.22;;;;;;;5.94;100.00;101495.53;5029366;28;20029;-69
2022/12/03 01:24:11;;;;;;;7.28;3.33;;;;;;;5.47;100.00;101399.06;5029845;28;20030;-70
2022/12/03 01:26:36;;;;;;;6.60;2.45;;;;;;;5.80;100.00;101457.75;5029578;28;20492;-68
2022/12/03 01:29:03;;;;;;;6.35;2.53;;;;;;;6.07;100.00;101499.88;5029484;28;20398;-74
2022/12/03 01:34:12;;;;;;;8.85;3.40;;;;;;;6.22;100.00;101501.75;5029314;28;20032;-72
2022/12/03 01:36:38;;;;;;;6.15;2.80;;;;;;;6.14;100.00;101484.16;5029575;28;20029;-69
2022/12/03 01:39:03;;;;;;;6.55;2.97;;;;;;;6.19;100.00;101506.66;5029604;28;20030;-70
2022/12/03 01:41:31;;;;;;;7.47;3.33;;;;;;;6.15;100.00;101487.59;5040305;28;20040;-73
2022/12/03 01:43:57;;;;;;;5.80;2.78;;;;;;;6.03;100.00;101456.88;5051305;28;20029;-74
2022/12/03 01:46:33;;;;;;;6.47;2.65;;;;;;;6.34;100.00;101494.91;5051794;28;20478;-74
2022/12/03 01:48:59;;;;;;;4.55;2.50;;;;;;;6.15;100.00;101467.09;5051920;28;20517;-76
2022/12/03 01:51:24;;;;;;;5.22;2.58;;;;;;;6.27;100.00;101493.63;5037231;28;20040;-70
2022/12/03 01:53:50;;;;;;;5.75;2.50;;;;;;;6.21;100.00;101494.88;5049305;28;20060;-73
2022/12/03 01:56:16;;;;;;;4.65;2.42;;;;;;;6.21;100.00;101500.88;5051111;28;20037;-75
2022/12/03 01:58:43;;;;;;;4.07;2.17;;;;;;;6.11;100.00;101475.38;5053283;28;20103;-72
2022/12/03 02:01:15;;;;;;;5.38;2.47;;;;;;;6.19;100.00;101497.28;5052436;28;20084;-75
2022/12/03 02:03:42;;;;;;;13.73;2.50;;;;;;;6.20;100.00;101505.91;5052743;28;20418;-73
2022/12/03 02:06:33;;;;;;;4.45;2.40;;;;;;;6.23;100.00;101506.09;5052857;28;20037;-72
2022/12/03 02:08:59;;;;;;;6.03;2.10;;;;;;;6.16;100.00;101507.34;5010532;28;20483;-74
2022/12/03 02:11:26;;;;;;;3.72;2.33;;;;;;;6.22;100.00;101510.34;5010211;28;20038;-73
2022/12/03 02:13:56;;;;;;;4.50;2.13;;;;;;;6.23;100.00;101504.44;5010157;28;20081;-72
2022/12/03 02:16:22;;;;;;;6.10;2.53;;;;;;;6.11;100.00;101477.94;5010302;28;20065;-71
2022/12/03 02:18:47;;;;;;;5.07;2.50;;;;;;;6.19;100.00;101494.72;5010162;28;20080;-74
2022/12/03 02:21:19;;;;;;;3.78;2.65;;;;;;;6.26;100.00;101504.66;5009924;28;20034;-71
2022/12/03 02:24:21;;;;;;;4.72;2.42;;;;;;;6.21;100.00;101510.25;5009928;28;20037;-70
2022/12/03 02:26:47;;;;;;;6.38;2.90;;;;;;;6.14;100.00;101516.59;5010184;28;20560;-70
2022/12/03 02:29:12;;;;;;;6.72;2.70;;;;;;;6.09;100.00;101523.97;5010131;28;20116;-72
2022/12/03 02:31:38;;;;;;;4.80;2.97;;;;;;;6.01;100.00;101521.59;5009874;28;20128;-72
2022/12/03 02:34:07;;;;;;;4.90;3.28;;;;;;;5.93;100.00;101527.06;5009906;28;20042;-75
2022/12/03 02:36:34;;;;;;;7.72;2.90;;;;;;;5.91;100.00;101526.03;5010921;28;20504;-72
2022/12/03 02:39:00;;;;;;;5.00;3.20;;;;;;;5.81;100.00;101506.53;4979592;28;20081;-71
2022/12/03 02:44:11;;;;;;;5.32;3.35;;;;;;;5.93;100.00;101532.19;5009879;28;20065;-72
2022/12/03 02:46:36;;;;;;;6.28;3.45;;;;;;;5.83;100.00;101519.47;5038207;28;20120;-71
2022/12/03 02:49:03;;;;;;;6.10;3.63;;;;;;;5.71;100.00;101495.50;5031781;28;20034;-70
2022/12/03 02:51:28;;;;;;;5.50;3.58;;;;;;;5.88;100.00;101533.53;5068054;28;20055;-72
2022/12/03 02:53:55;;;;;;;6.05;3.63;;;;;;;5.79;100.00;101517.47;5069426;28;20037;-72
2022/12/03 02:56:25;;;;;;;5.85;3.53;;;;;;;5.82;100.00;101531.41;5068970;28;20040;-72
2022/12/03 02:58:53;;;;;;;;;;;;;;;5.75;100.00;101526.59;5069797;28;20029;-72
2022/12/03 03:01:18;;;;;;;5.28;3.72;;;;;;;5.49;100.00;101478.56;5068991;28;20352;-74
2022/12/03 03:03:45;;;;;;;7.55;4.40;;;;;;;5.73;100.00;101524.69;5068495;28;20037;-72
2022/12/03 03:06:11;;;;;;;8.38;5.35;;;;;;;5.65;100.00;101519.91;5068923;28;20038;-70
2022/12/03 03:08:38;;;;;;;8.63;4.88;;;;;;;5.69;100.00;101526.13;5068962;28;20036;-72
2022/12/03 03:11:04;;;;;;;7.20;5.20;;;;;;;5.49;100.00;101511.88;5069024;28;20033;-72
2022/12/03 03:13:32;;;;;;;11.88;5.72;;;;;;;5.54;100.00;101517.34;5035620;28;20070;-71
2022/12/03 03:15:58;;;;;;;7.72;5.25;;;;;;;5.55;100.00;101532.81;5068928;28;20111;-72
2022/12/03 03:18:23;;;;;;;9.88;5.53;;;;;;;5.61;100.00;101528.13;5068105;28;20399;-72
2022/12/03 03:20:49;;;;;;;10.40;5.43;;;;;;;5.62;100.00;101529.94;5068653;28;20039;-74
2022/12/03 03:23:18;;;;;;;8.48;5.47;;;;;;;5.62;100.00;101524.81;5068467;28;20049;-72
2022/12/03 03:25:50;;;;;;;10.32;5.68;;;;;;;5.51;100.00;101500.06;5068770;28;20024;-77
2022/12/03 03:28:16;;;;;;;8.85;5.93;;;;;;;5.62;100.00;101524.81;5063793;28;20040;-72
2022/12/03 03:30:43;;;;;;;9.02;6.18;;;;;;;5.38;100.00;101482.88;5053228;28;20036;-72
2022/12/03 03:33:09;;;;;;;12.10;5.95;;;;;;;5.59;100.00;101519.44;5038135;28;20037;-72
2022/12/03 03:35:36;;;;;;;8.82;6.10;;;;;;;5.64;100.00;101532.59;5031362;28;20719;-72
2022/12/03 03:38:02;;;;;;;9.35;6.13;;;;;;;5.63;100.00;101524.03;5031015;28;20410;-72
2022/12/03 03:40:28;;;;;;;11.73;6.18;;;;;;;5.60;100.00;101518.66;5031033;28;20038;-77
2022/12/03 03:42:55;;;;;;;9.07;6.00;;;;;;;5.63;100.00;101526.59;5031020;28;20052;-72
2022/12/03 03:45:21;;;;;;;8.30;5.90;;;;;;;5.72;100.00;101538.28;5030458;28;20033;-72
2022/12/03 03:47:47;;;;;;;8.27;5.78;;;;;;;5.62;100.00;101540.19;5031086;28;20036;-70
2022/12/03 03:50:13;;;;;;;8.68;5.82;;;;;;;5.53;100.00;101531.78;5031030;28;20017;-72
2022/12/03 03:52:40;;;;;;;11.00;6.53;;;;;;;5.65;100.00;101552.31;5065573;28;20117;-72
2022/12/03 03:55:06;;;;;;;11.35;6.05;;;;;;;5.65;100.00;101558.31;5039389;28;20502;-72
2022/12/03 03:57:32;;;;;;;8.63;6.10;;;;;;;5.57;100.00;101538.94;5030741;28;20060;-72
2022/12/03 03:59:58;;;;;;;9.68;5.80;;;;;;;5.35;100.00;101503.16;5030441;28;20468;-72
2022/12/03 04:02:25;;;;;;;9.32;5.68;;;;;;;5.61;100.00;101543.50;5041808;28;20048;-71
2022/12/03 04:04:51;;;;;;;7.65;5.15;;;;;;;5.59;100.00;101546.75;5033064;28;20105;-72
2022/12/03 04:07:16;;;;;;;10.57;6.07;;;;;;;5.14;100.00;101484.53;5030020;28;20759;-71
2022/12/03 04:09:42;;;;;;;9.60;5.90;;;;;;;5.63;100.00;101554.78;5030563;28;20045;-72
2022/12/03 04:14:52;;;;;;;8.95;5.50;;;;;;;5.59;100.00;101557.88;5030515;28;20037;-71
2022/12/03 04:17:18;;;;;;;9.20;5.75;;;;;;;5.64;100.00;101574.47;5030646;28;20046;-72
2022/12/03 04:19:43;;;;;;;9.43;6.20;;;;;;;5.64;100.00;101569.34;5030890;28;20033;-73
2022/12/03 04:28:47;;;;;;;9.65;6.50;;;;;;;5.66;100.00;101572.94;5029900;28;20087;-72
2022/12/03 04:30:35;;;;;;;9.05;6.95;;;;;;;5.72;100.00;101558.78;4987997;28;20061;-72
2022/12/03 04:35:45;;;;;;;15.45;6.28;;;;;;;5.72;100.00;101572.50;4988621;28;20072;-72
2022/12/03 04:38:12;;;;;;;11.05;6.85;;;;;;;5.68;100.00;101575.59;4988288;28;20041;-72
2022/12/03 04:43:22;;;;;;;10.50;6.65;;;;;;;5.70;100.00;101575.72;4988362;28;20044;-73
2022/12/03 04:45:48;;;;;;;12.25;6.60;;;;;;;5.64;100.00;101558.22;4987676;28;20117;-73
2022/12/03 04:48:13;;;;;;;10.32;6.13;;;;;;;5.50;100.00;101524.78;4988234;28;20535;-72
2022/12/03 04:50:39;;;;;;;10.32;6.75;;;;;;;5.73;100.00;101565.69;4988232;28;20042;-72
2022/12/03 04:53:04;;;;;;;9.98;6.15;;;;;;;5.65;100.00;101544.63;4988029;28;20539;-72
2022/12/03 04:55:29;;;;;;;9.52;5.75;;;;;;;5.78;100.00;101569.47;4987818;28;20420;-70
2022/12/03 04:57:55;;;;;;;7.68;5.55;;;;;;;5.80;100.00;101570.50;4988141;28;20038;-72
2022/12/03 05:00:20;;;;;;;8.73;6.18;;;;;;;5.65;100.00;101544.63;4987329;28;20056;-73
2022/12/03 05:02:46;;;;;;;8.13;5.65;;;;;;;5.84;100.00;101582.75;4987967;28;20037;-71
2022/12/03 05:05:12;;;;;;;9.15;5.70;;;;;;;5.67;100.00;101561.03;4990545;28;20045;-72
2022/12/03 05:07:37;;;;;;;7.80;5.57;;;;;;;5.61;100.00;101548.63;5029910;28;20031;-72
2022/12/03 05:10:04;;;;;;;12.15;6.13;;;;;;;5.80;100.00;101575.63;5029902;28;20100;-71
2022/12/03 05:12:30;;;;;;;9.10;5.35;;;;;;;5.78;100.00;101577.16;5029557;28;20040;-77
2022/12/03 05:14:55;;;;;;;8.90;5.70;;;;;;;5.89;100.00;101585.66;5029541;28;20026;-72
2022/12/03 05:17:21;;;;;;;10.70;5.85;;;;;;;5.88;100.00;101578.75;5036547;28;20491;-72
2022/12/03 05:22:30;;;;;;;7.75;5.15;;;;;;;5.90;100.00;101582.31;5033848;28;20040;-70
2022/12/03 05:24:56;;;;;;;10.55;5.72;;;;;;;5.98;100.00;101597.53;5046301;28;20021;-73
2022/12/03 05:27:21;;;;;;;10.63;5.75;;;;;;;5.98;100.00;101586.31;5044309;28;20488;-73
2022/12/03 05:29:47;;;;;;;9.15;5.43;;;;;;;5.95;100.00;101587.00;5033059;28;20037;-71
2022/12/03 05:32:12;;;;;;;8.68;5.63;;;;;;;5.99;100.00;101594.19;5035161;28;20453;-70
2022/12/03 05:34:38;;;;;;;8.35;5.55;;;;;;;5.96;100.00;101586.22;5033414;28;20037;-73
2022/12/03 05:37:03;;;;;;;8.77;5.28;;;;;;;5.97;100.00;101593.13;5041462;28;20025;-73
2022/12/03 05:39:29;;;;;;;9.43;6.20;;;;;;;5.93;100.00;101580.88;5033242;28;20112;-72
2022/12/03 05:44:38;;;;;;;11.93;5.65;;;;;;;5.98;100.00;101576.06;5033633;28;20045;-73
2022/12/03 05:47:03;;;;;;;9.93;5.70;;;;;;;6.12;100.00;101605.34;5062683;28;20033;-73
2022/12/03 05:49:29;;;;;;;10.27;6.38;;;;;;;6.07;100.00;101586.13;5033044;28;20070;-72
2022/12/03 05:51:54;;;;;;;9.13;5.90;;;;;;;6.11;100.00;101607.00;5036379;28;20032;-72
2022/12/03 05:54:20;;;;;;;10.85;7.15;;;;;;;6.11;100.00;101601.88;5039778;28;20036;-73
2022/12/03 05:56:46;;;;;;;8.32;5.85;;;;;;;6.12;100.00;101607.91;5040778;28;20033;-75
2022/12/03 05:59:11;;;;;;;14.02;7.10;;;;;;;6.19;100.00;101612.69;5050277;28;20033;-73
2022/12/03 06:01:37;;;;;;;10.85;7.22;;;;;;;6.07;100.00;101592.19;5053270;28;20047;-71
2022/12/03 06:04:02;;;;;;;9.63;6.13;;;;;;;6.29;100.00;101620.28;5041948;28;20034;-73
2022/12/03 06:06:27;;;;;;;10.45;5.90;;;;;;;6.27;100.00;101626.09;5046879;28;20060;-74
2022/12/03 06:08:53;;;;;;;15.38;7.28;;;;;;;6.07;100.00;101583.56;5050321;28;20041;-71
2022/12/03 06:11:18;;;;;;;10.60;6.45;;;;;;;6.29;100.00;101616.81;5049892;28;20079;-72
2022/12/03 06:13:44;;;;;;;10.07;6.85;;;;;;;6.28;100.00;101633.88;5050203;28;20033;-72
2022/12/03 06:16:09;;;;;;;13.32;7.35;;;;;;;6.23;100.00;101609.59;5050586;28;20123;-72
2022/12/03 06:18:34;;;;;;;13.73;7.03;;;;;;;6.27;100.00;101613.25;5050224;28;20035;-72
2022/12/03 06:21:00;;;;;;;12.00;6.90;;;;;;;5.98;100.00;101569.31;5050195;28;20434;-72
2022/12/03 06:23:25;;;;;;;13.73;7.20;;;;;;;6.14;100.00;101593.50;5050078;28;20033;-73
2022/12/03 06:25:51;;;;;;;14.00;8.57;;;;;;;6.23;100.00;101624.97;5049770;28;20037;-72
2022/12/03 06:28:16;;;;;;;11.40;7.10;;;;;;;6.13;100.00;101619.91;5049906;28;20033;-73
2022/12/03 06:30:41;;;;;;;14.38;7.75;;;;;;;6.06;100.00;101617.72;5049054;28;20024;-73
2022/12/03 06:33:07;;;;;;;12.02;7.30;;;;;;;6.12;100.00;101625.84;5049605;28;20533;-72
2022/12/03 06:35:32;;;;;;;14.75;7.70;;;;;;;6.12;100.00;101630.97;5049726;28;20114;-77
2022/12/03 06:37:58;;;;;;;13.25;7.63;;;;;;;6.02;100.00;101633.63;5037185;28;20159;-72
2022/12/03 06:40:23;;;;;;;13.13;7.88;;;;;;;5.97;100.00;101613.66;5031956;28;20025;-73
2022/12/03 06:42:49;;;;;;;12.35;8.65;;;;;;;6.06;100.00;101626.28;5032508;28;20467;-73
2022/12/03 06:45:15;;;;;;;12.02;7.35;;;;;;;5.95;100.00;101622.88;5032034;28;20030;-73
2022/12/03 06:47:40;;;;;;;10.77;7.45;;;;;;;5.79;100.00;101602.91;5032128;28;20411;-73
2022/12/03 06:50:07;;;;;;;11.40;8.48;;;;;;;5.96;100.00;101634.94;5032212;28;20032;-72
2022/12/03 06:52:33;;;;;;;11.70;7.97;;;;;;;6.04;100.00;101648.34;5032276;28;20032;-78
2022/12/03 06:54:58;;;;;;;12.00;8.25;;;;;;;5.99;100.00;101650.59;5057444;28;20029;-74
2022/12/03 06:57:24;;;;;;;11.98;7.90;;;;;;;5.90;100.00;101641.28;5035758;28;20403;-73
2022/12/03 06:59:49;;;;;;;11.73;7.97;;;;;;;5.83;100.00;101612.63;5032027;28;20073;-74
2022/12/03 07:02:14;;;;;;;17.98;8.93;;;;;;;5.98;100.00;101633.41;5042250;28;20029;-73
2022/12/03 07:04:40;;;;;;;12.02;8.27;;;;;;;6.05;100.00;101650.13;5045599;28;20036;-73
2022/12/03 07:07:05;;;;;;;14.38;8.10;;;;;;;6.08;100.00;101650.38;5039349;28;20029;-72
2022/12/03 07:09:31;;;;;;;12.18;8.52;;;;;;;6.09;100.00;101652.16;5031844;28;20033;-74
2022/12/03 07:11:56;;;;;;;18.95;8.73;;;;;;;6.15;100.00;101655.16;5031454;28;20111;-75
2022/12/03 07:14:21;;;;;;;13.98;8.65;;;;;;;6.09;100.00;101638.44;5032079;28;20067;-74
2022/12/03 07:16:47;;;;;;;24.40;14.98;;;;;;;6.22;100.00;101646.25;5031710;28;20022;-73
2022/12/03 07:19:12;;;;;;;22.75;18.25;;;;;;;6.19;100.00;101653.72;5031581;28;20479;-73
2022/12/03 07:21:38;;;;;;;18.60;12.65;;;;;;;5.89;100.00;101590.78;5031362;28;20072;-75
2022/12/03 07:24:04;;;;;;;15.80;10.15;;;;;;;6.20;100.00;101652.06;5031726;28;20025;-74
2022/12/03 07:26:30;;;;;;;15.75;9.23;;;;;;;6.19;100.00;101643.44;5031340;28;20487;-74
2022/12/03 07:28:56;;;;;;;20.80;12.10;;;;;;;6.20;100.00;101649.50;5031504;28;20035;-74
2022/12/03 07:31:22;;;;;;;23.75;14.27;;;;;;;6.21;100.00;101659.84;5031502;28;20482;-76
2022/12/03 07:33:47;;;;;;;18.90;10.20;;;;;;;6.03;100.00;101640.53;5031111;28;20079;-73
2022/12/03 07:36:12;;;;;;;26.42;13.73;;;;;;;6.24;100.00;101675.47;5031739;28;20060;-73
2022/12/03 07:38:38;;;;;;;15.88;10.23;;;;;;;5.95;100.00;101628.00;5030990;28;20083;-74
2022/12/03 07:41:03;;;;;;;13.02;8.75;;;;;;;6.21;100.00;101671.78;5031100;28;20063;-73
2022/12/03 07:43:29;;;;;;;14.70;9.38;;;;;;;5.87;100.00;101630.78;5031428;28;20037;-71
2022/12/03 07:45:55;;;;;;;19.65;12.55;;;;;;;6.05;100.00;101644.13;5030941;28;20081;-72
2022/12/03 07:48:20;;;;;;;13.02;9.80;;;;;;;6.25;100.00;101678.94;5031394;28;20036;-73
2022/12/03 07:50:46;;;;;;;13.95;9.18;;;;;;;6.24;100.00;101677.13;5031094;28;20566;-73
2022/12/03 07:53:11;;;;;;;17.45;10.63;;;;;;;6.23;100.00;101671.13;5031477;28;20484;-73
2022/12/03 07:55:36;;;;;;;14.20;9.38;;;;;;;5.96;100.00;101628.91;5031526;28;20063;-73
2022/12/03 07:58:02;;;;;;;13.82;8.65;;;;;;;6.16;100.00;101679.13;5031373;28;20034;-73
2022/12/03 08:00:28;;;;;;;11.65;8.55;;;;;;;6.14;100.00;101676.47;5031335;28;20042;-74
2022/12/03 08:02:53;;;;;;;11.70;8.45;;;;;;;6.22;100.00;101673.56;5031516;28;20033;-73
2022/12/03 08:05:18;;;;;;;18.10;11.15;;;;;;;6.17;100.00;101662.06;5031297;28;20100;-74
2022/12/03 08:07:44;;;;;;;12.38;9.10;;;;;;;6.26;100.00;101679.03;5031247;28;20112;-77
2022/12/03 08:10:09;;;;;;;13.23;9.07;;;;;;;6.27;100.00;101669.69;5031530;28;20034;-73
2022/12/03 08:12:40;;;;;;;16.48;10.85;;;;;;;6.32;100.00;101676.03;5031074;28;20034;-73
2022/12/03 08:15:18;;;;;;;20.75;12.70;;;;;;;6.33;100.00;101675.25;5031090;28;20030;-73
2022/12/03 08:17:45;;;;;;;22.50;13.85;;;;;;;6.35;100.00;101681.38;5030882;28;20033;-73
2022/12/03 08:20:18;;;;;;;17.55;10.80;;;;;;;6.42;100.00;101675.94;5030921;28;20103;-73
2022/12/03 08:22:47;;;;;;;23.02;15.43;;;;;;;6.47;100.00;101679.72;5030967;28;20056;-73
2022/12/03 08:25:19;;;;;;;16.45;10.88;;;;;;;6.27;100.00;101642.34;5030669;28;20059;-73
2022/12/03 08:27:45;;;;;;;17.00;11.35;;;;;;;6.56;100.00;101679.50;5031163;28;20471;-72
2022/12/03 08:30:12;;;;;;;18.35;11.60;;;;;;;6.40;100.00;101641.56;5030925;28;20091;-73
2022/12/03 08:32:38;;;;;;;15.90;12.30;;;;;;;6.59;100.00;101678.81;5030826;28;20033;-74
2022/12/03 08:35:12;;;;;;;33.53;18.42;;;;;;;6.57;100.00;101681.28;5030235;28;20029;-73
2022/12/03 08:37:38;;;;;;;23.20;15.65;;;;;;;6.54;100.00;101673.38;5027116;28;20033;-72
2022/12/03 08:40:19;;;;;;;19.02;14.80;;;;;;;6.43;100.00;101652.06;5030347;28;20040;-72
2022/12/03 08:42:44;;;;;;;25.42;15.18;;;;;;;6.54;100.00;101657.06;5030558;28;20476;-73
2022/12/03 08:45:27;;;;;;;43.63;17.73;;;;;;;6.63;100.00;101665.44;5027667;28;20041;-73
2022/12/03 08:48:38;;;;;;;31.13;14.50;;;;;;;6.41;100.00;101629.66;5028211;28;20072;-72
2022/12/03 08:51:24;;;;;;;22.30;12.32;;;;;;;6.63;100.00;101658.63;4993089;28;20040;-72
2022/12/03 08:53:56;;;;;;;20.88;11.68;;;;;;;6.62;100.00;101664.53;4975079;28;20041;-73
2022/12/03 08:56:28;;;;;;;14.45;8.25;;;;;;;6.55;100.00;101639.22;4975342;28;20034;-74
2022/12/03 08:59:00;;;;;;;20.02;10.93;;;;;;;6.62;100.00;101661.97;5008309;28;20523;-73
2022/12/03 09:01:40;;;;;;;13.32;8.98;;;;;;;6.66;100.00;101657.06;5008177;28;20057;-73
2022/12/03 09:04:24;;;;;;;;;;;;;;;6.70;100.00;101661.63;5008570;28;20439;-73
2022/12/03 09:06:51;;;;;;;14.00;9.77;;;;;;;6.67;100.00;101658.84;5008260;28;20419;-74
2022/12/03 09:09:17;;;;;;;13.60;10.13;;;;;;;6.67;100.00;101658.84;5008477;28;20045;-73
2022/12/03 09:11:43;;;;;;;17.98;12.15;;;;;;;6.64;100.00;101655.28;5008551;28;20451;-73
2022/12/03 09:14:09;;;;;;;19.88;12.82;;;;;;;6.62;100.00;101661.09;5008299;28;20095;-71
2022/12/03 09:16:34;;;;;;;20.33;13.88;;;;;;;6.55;100.00;101651.16;4978602;28;20559;-73
2022/12/03 09:19:00;;;;;;;19.98;13.30;;;;;;;6.62;100.00;101654.28;4988519;28;20504;-73
2022/12/03 09:21:25;;;;;;;19.63;13.82;;;;;;;6.62;100.00;101651.72;5003277;28;20045;-74
2022/12/03 09:23:51;;;;;;;24.38;16.48;;;;;;;6.50;100.00;101644.81;5030277;28;20113;-73
2022/12/03 09:26:16;;;;;;;28.35;16.80;;;;;;;6.48;100.00;101632.75;5030293;28;20040;-74
2022/12/03 09:28:41;;;;;;;18.15;12.98;;;;;;;6.67;100.00;101658.84;5030031;28;20395;-73
2022/12/03 09:31:07;;;;;;;16.02;11.68;;;;;;;6.70;100.00;101648.81;5029837;28;20406;-74
2022/12/03 09:33:32;;;;;;;15.18;10.57;;;;;;;6.47;100.00;101610.44;5045396;28;20033;-73
2022/12/03 09:35:58;;;;;;;15.43;12.45;;;;;;;6.68;100.00;101646.13;5030302;28;20033;-73
2022/12/03 09:38:24;;;;;;;13.38;10.30;;;;;;;6.82;100.00;101662.53;5029830;28;20537;-71
2022/12/03 09:40:50;;;;;;;13.90;10.40;;;;;;;6.73;100.00;101651.56;5029796;28;20021;-73
2022/12/03 09:43:16;;;;;;;15.35;11.65;;;;;;;6.58;100.00;101626.63;5030279;28;20029;-74
2022/12/03 09:45:46;;;;;;;20.55;12.93;;;;;;;6.79;100.00;101657.16;5029756;28;20030;-73
2022/12/03 09:48:13;;;;;;;;;;;;;;;6.77;100.00;101646.78;5030389;28;20033;-75
2022/12/03 09:50:40;;;;;;;18.88;12.77;;;;;;;6.76;100.00;101633.84;5029841;28;20314;-73
2022/12/03 09:53:11;;;;;;;18.75;14.90;;;;;;;6.81;100.00;101645.31;5029794;28;20041;-73
2022/12/03 09:55:36;;;;;;;17.42;12.05;;;;;;;6.78;100.00;101640.00;5029690;28;20454;-74
2022/12/03 09:58:10;;;;;;;16.50;11.40;;;;;;;6.86;100.00;101630.25;5030180;28;20025;-73
2022/12/03 10:00:36;;;;;;;17.27;12.77;;;;;;;6.87;100.00;101630.38;5029989;28;20064;-74
2022/12/03 10:03:04;;;;;;;18.67;13.07;;;;;;;6.87;100.00;101627.78;5029807;28;20496;-73
2022/12/03 10:05:30;;;;;;;15.77;11.57;;;;;;;6.85;100.00;101628.47;5031083;28;20034;-72
2022/12/03 10:08:03;;;;;;;16.85;12.07;;;;;;;6.90;100.00;101619.41;5033473;28;20809;-73
2022/12/03 10:10:29;;;;;;;16.05;11.48;;;;;;;6.94;100.00;101626.53;5033376;28;20388;-73
2022/12/03 10:12:55;;;;;;;16.38;12.00;;;;;;;6.87;100.00;101608.94;5033252;28;20032;-73
2022/12/03 10:15:22;;;;;;;16.10;11.35;;;;;;;7.01;100.00;101635.59;5032223;28;20052;-73
2022/12/03 10:17:50;;;;;;;15.35;11.75;;;;;;;7.02;100.00;101627.97;5048619;28;20041;-73
2022/12/03 10:20:18;;;;;;;21.80;13.93;;;;;;;7.00;100.00;101623.53;5033575;28;20025;-73
2022/12/03 10:22:44;;;;;;;16.50;12.70;;;;;;;6.95;100.00;101626.66;5048481;28;20112;-73
2022/12/03 10:25:15;;;;;;;28.02;16.80;;;;;;;6.93;100.00;101615.38;5033072;28;20108;-73
2022/12/03 10:27:40;;;;;;;24.13;14.00;;;;;;;6.91;100.00;101616.94;5033106;28;20033;-73
2022/12/03 10:30:22;;;;;;;26.80;17.40;;;;;;;6.91;100.00;101618.63;5032965;28;20036;-73
2022/12/03 10:32:49;;;;;;;24.48;15.77;;;;;;;6.84;100.00;101607.06;5032832;28;20030;-73
2022/12/03 10:35:15;;;;;;;18.77;13.88;;;;;;;6.94;100.00;101618.84;5032791;28;20037;-73
2022/12/03 10:38:06;;;;;;;19.55;13.93;;;;;;;6.99;100.00;101608.91;5033056;28;20033;-73
2022/12/03 10:40:36;;;;;;;19.77;14.70;;;;;;;6.92;100.00;101598.19;5032675;28;20466;-73
2022/12/03 10:43:19;;;;;;;17.00;12.70;;;;;;;6.76;100.00;101583.41;5032627;28;20388;-73
2022/12/03 10:45:48;;;;;;;20.77;12.68;;;;;;;7.05;100.00;101609.31;5032419;28;20040;-73
2022/12/03 10:48:26;;;;;;;16.55;11.23;;;;;;;6.85;100.00;101567.75;5032416;28;20487;-74
2022/12/03 10:51:20;;;;;;;15.70;10.57;;;;;;;6.94;100.00;101591.50;5032778;28;20408;-73
2022/12/03 10:53:47;;;;;;;15.10;10.77;;;;;;;6.99;100.00;101601.19;5032839;28;20032;-73
2022/12/03 10:56:33;;;;;;;15.07;11.13;;;;;;;7.05;100.00;101597.41;5034740;28;20102;-74
2022/12/03 10:58:59;;;;;;;13.65;9.88;;;;;;;7.13;100.00;101601.38;5032055;28;20046;-73
2022/12/03 11:01:25;;;;;;;16.65;11.85;;;;;;;7.15;100.00;101603.16;5031931;28;20057;-73
2022/12/03 11:03:52;;;;;;;15.75;9.18;;;;;;;7.15;100.00;101598.03;5032157;28;20617;-73
2022/12/03 11:06:21;;;;;;;14.60;9.05;;;;;;;6.90;100.00;101551.00;5032582;28;20116;-73
2022/12/03 11:08:51;;;;;;;15.88;8.77;;;;;;;7.10;100.00;101585.75;5032090;28;20025;-73
2022/12/03 11:11:19;;;;;;;13.40;8.55;;;;;;;7.20;100.00;101602.69;5032315;28;20040;-74
2022/12/03 11:13:49;;;;;;;11.70;8.38;;;;;;;7.20;100.00;101594.09;5032371;28;20033;-73
2022/12/03 11:16:35;;;;;;;;;;;;;;;7.17;100.00;101601.59;5032427;28;20091;-73
2022/12/03 11:19:01;;;;;;;19.17;10.82;;;;;;;7.17;100.00;101593.88;5032031;28;19916;-73
2022/12/03 11:21:30;;;;;;;24.63;11.95;;;;;;;7.17;100.00;101599.91;5032107;28;20117;-73
2022/12/03 11:23:59;;;;;;;22.35;14.23;;;;;;;7.20;100.00;101600.13;5032058;28;20055;-73
2022/12/03 11:26:27;;;;;;;20.20;13.10;;;;;;;7.02;100.00;101563.78;5032064;28;20037;-73
2022/12/03 11:28:54;;;;;;;15.27;10.02;;;;;;;7.25;100.00;101608.13;5031668;28;20356;-74
2022/12/03 11:31:41;;;;;;;15.10;10.75;;;;;;;7.20;100.00;101595.00;5031561;28;20476;-72
2022/12/03 11:34:22;;;;;;;15.07;9.57;;;;;;;7.11;100.00;101577.25;5031748;28;20026;-73
2022/12/03 11:37:13;;;;;;;14.07;9.88;;;;;;;7.27;100.00;101598.88;5031617;28;20036;-73
2022/12/03 11:39:48;;;;;;;17.50;11.38;;;;;;;7.28;100.00;101593.81;5029682;28;20091;-72
2022/12/03 11:42:25;;;;;;;14.68;10.50;;;;;;;7.24;100.00;101596.97;5031610;28;20025;-73
2022/12/03 11:45:27;;;;;;;14.40;10.63;;;;;;;7.17;100.00;101596.47;5031666;28;20395;-73
2022/12/03 11:47:58;;;;;;;14.63;10.98;;;;;;;7.16;100.00;101600.69;4970215;28;20041;-74